Time;durP1;ratioP1;P1;durP2;ratioP2;P2;SDS_P1;SDS_P2;PMS_P1;PMS_P2;Temp;Humidity;BMP_temperature;BMP_pressure;BME280_temperature;BME280_humidity;BME280_pressure;Samples;Min_cycle;Max_cycle;Signal;HPM_P1;HPM_P2
2023/08/08 00:38:06;;;;;;;;;;;13.30;99.90;;;;;;4933468;29;20065;-77
2023/08/08 00:40:32;;;;;;;;;;;13.30;99.90;;;;;;4915363;29;20021;-77
2023/08/08 00:42:57;;;;;;;;;;;13.30;99.90;;;;;;4897525;29;19923;-77
2023/08/08 00:45:23;;;;;;;;;;;13.20;99.90;;;;;;4917799;29;19926;-77
2023/08/08 00:47:49;;;;;;;;;;;13.20;99.90;;;;;;4929592;29;20289;-78
2023/08/08 00:50:15;;;;;;;;;;;13.20;99.90;;;;;;4911000;29;19931;-77
2023/08/08 00:52:41;;;;;;;;;;;13.20;99.90;;;;;;4916612;29;20013;-77
2023/08/08 00:55:07;;;;;;;;;;;13.20;99.90;;;;;;4912717;29;19942;-77
2023/08/08 00:57:35;;;;;;;;;;;13.20;99.90;;;;;;4914783;29;19929;-77
2023/08/08 01:00:00;;;;;;;;;;;13.20;99.90;;;;;;4914821;29;19923;-77
2023/08/08 01:02:26;;;;;;;;;;;13.10;99.90;;;;;;4915023;29;20646;-77
2023/08/08 01:04:51;;;;;;;;;;;13.10;99.90;;;;;;4915021;29;20021;-77
2023/08/08 01:07:24;;;;;;;;;;;13.10;99.90;;;;;;4911593;29;19922;-77
2023/08/08 01:09:55;;;;;;;;;;;13.10;99.90;;;;;;4914741;29;20005;-78
2023/08/08 01:12:20;;;;;;;;;;;13.10;99.90;;;;;;4901541;29;19934;-77
2023/08/08 01:14:46;;;;;;;;;;;13.10;99.90;;;;;;4908531;29;19923;-77
2023/08/08 01:17:12;;;;;;;;;;;13.10;99.90;;;;;;4916172;29;20348;-77
2023/08/08 01:19:38;;;;;;;;;;;13.10;99.90;;;;;;4900648;29;20417;-77
2023/08/08 01:22:09;;;;;;;;;;;13.10;99.90;;;;;;4916635;29;19926;-77
2023/08/08 01:24:37;;;;;;;;;;;13.10;99.90;;;;;;4916448;29;19961;-77
2023/08/08 01:27:03;;;;;;;;;;;13.10;99.90;;;;;;4916652;29;19969;-77
2023/08/08 01:29:28;;;;;;;;;;;13.10;99.90;;;;;;4916862;29;19930;-77
2023/08/08 01:31:54;;;;;;;;;;;13.10;99.90;;;;;;4916038;29;20453;-77
2023/08/08 01:34:20;;;;;;;;;;;13.10;99.90;;;;;;4910939;29;19929;-77
2023/08/08 01:36:46;;;;;;;;;;;13.10;99.90;;;;;;4899597;29;19923;-77
2023/08/08 01:39:17;;;;;;;;;;;13.10;99.90;;;;;;4897218;29;20294;-77
2023/08/08 01:41:44;;;;;;;;;;;13.10;99.90;;;;;;4887045;29;20098;-77
2023/08/08 01:44:10;;;;;;;;;;;13.20;99.90;;;;;;4897701;29;20359;-77
2023/08/08 01:46:38;;;;;;;;;;;13.20;99.90;;;;;;4897861;29;20010;-77
2023/08/08 01:49:04;;;;;;;;;;;13.20;99.90;;;;;;4897572;29;19927;-77
2023/08/08 01:51:29;;;;;;;;;;;13.30;99.90;;;;;;4897327;29;19919;-77
2023/08/08 01:53:55;;;;;;;;;;;13.30;99.90;;;;;;4897325;29;19919;-77
2023/08/08 01:56:20;;;;;;;;;;;13.30;99.90;;;;;;4897315;29;20157;-77
2023/08/08 01:58:46;;;;;;;;;;;13.40;99.90;;;;;;4913389;29;19923;-77
2023/08/08 02:01:11;;;;;;;;;;;13.40;99.90;;;;;;4896296;29;19930;-77
2023/08/08 02:03:37;;;;;;;;;;;13.30;99.90;;;;;;4900356;29;19926;-77
2023/08/08 02:06:02;;;;;;;;;;;13.40;99.90;;;;;;4880166;29;20366;-77
2023/08/08 02:08:28;;;;;;;;;;;13.50;99.90;;;;;;4897187;29;19969;-77
2023/08/08 02:10:53;;;;;;;;;;;13.40;99.90;;;;;;4896257;29;20018;-77
2023/08/08 02:13:19;;;;;;;;;;;13.50;99.90;;;;;;4897242;29;19926;-77
2023/08/08 02:15:45;;;;;;;;;;;13.50;99.90;;;;;;4880628;29;19930;-77
2023/08/08 02:18:11;;;;;;;;;;;13.50;99.90;;;;;;4880964;29;19934;-77
2023/08/08 02:20:36;;;;;;;;;;;13.50;99.90;;;;;;4881287;29;20018;-77
2023/08/08 02:23:02;;;;;;;;;;;13.50;99.90;;;;;;4897104;29;19919;-77
2023/08/08 02:25:27;;;;;;;;;;;13.50;99.90;;;;;;4900863;29;19982;-77
2023/08/08 02:27:53;;;;;;;;;;;13.60;99.90;;;;;;4886498;29;19919;-77
2023/08/08 02:30:19;;;;;;;;;;;13.50;99.90;;;;;;4916170;29;19937;-77
2023/08/08 02:32:44;;;;;;;;;;;13.50;99.90;;;;;;4900983;29;19923;-77
2023/08/08 02:35:10;;;;;;;;;;;13.50;99.90;;;;;;4900215;29;20330;-77
2023/08/08 02:37:35;;;;;;;;;;;13.60;99.90;;;;;;4898432;29;20422;-77
2023/08/08 02:40:01;;;;;;;;;;;13.50;99.90;;;;;;4900584;29;20368;-77
2023/08/08 02:42:27;;;;;;;;;;;13.60;99.90;;;;;;4900905;29;19993;-77
2023/08/08 02:44:52;;;;;;;;;;;13.50;99.90;;;;;;4900703;29;19923;-77
2023/08/08 02:47:18;;;;;;;;;;;13.50;99.90;;;;;;4884827;29;20314;-77
2023/08/08 02:49:43;;;;;;;;;;;13.50;99.90;;;;;;4884960;29;19927;-77
2023/08/08 02:52:09;;;;;;;;;;;13.50;99.90;;;;;;4884730;29;20009;-77
2023/08/08 02:54:34;;;;;;;;;;;13.60;99.90;;;;;;4900047;29;19938;-77
2023/08/08 02:57:00;;;;;;;;;;;13.60;99.90;;;;;;4889119;29;20101;-77
2023/08/08 02:59:25;;;;;;;;;;;13.60;99.90;;;;;;4894891;29;19959;-77
2023/08/08 03:01:52;;;;;;;;;;;13.60;99.90;;;;;;4900303;29;19962;-77
2023/08/08 03:04:17;;;;;;;;;;;13.60;99.90;;;;;;4900452;29;19927;-77
2023/08/08 03:06:43;;;;;;;;;;;13.70;99.90;;;;;;4899832;29;19930;-77
2023/08/08 03:09:08;;;;;;;;;;;13.70;99.90;;;;;;4899708;29;19926;-77
2023/08/08 03:11:34;;;;;;;;;;;13.60;99.90;;;;;;4899998;29;20010;-77
2023/08/08 03:13:59;;;;;;;;;;;13.70;99.90;;;;;;4883172;29;19930;-77
2023/08/08 03:16:25;;;;;;;;;;;13.70;99.90;;;;;;4899662;29;19919;-77
2023/08/08 03:18:51;;;;;;;;;;;13.70;99.90;;;;;;4898675;29;20341;-77
2023/08/08 03:21:16;;;;;;;;;;;13.70;99.90;;;;;;4900162;29;19934;-77
2023/08/08 03:23:42;;;;;;;;;;;13.60;99.90;;;;;;4899365;29;20386;-77
2023/08/08 03:26:07;;;;;;;;;;;13.70;99.90;;;;;;4899272;29;19946;-77
2023/08/08 03:28:33;;;;;;;;;;;13.70;99.90;;;;;;4899569;29;20374;-77
2023/08/08 03:30:58;;;;;;;;;;;13.60;99.90;;;;;;4899621;29;19927;-77
2023/08/08 03:33:24;;;;;;;;;;;13.60;99.90;;;;;;4898657;29;20438;-77
2023/08/08 03:35:49;;;;;;;;;;;13.60;99.90;;;;;;4909218;29;20401;-77
2023/08/08 03:38:15;;;;;;;;;;;13.60;99.90;;;;;;4918802;29;19923;-77
2023/08/08 03:40:41;;;;;;;;;;;13.50;99.90;;;;;;4919183;29;20378;-77
2023/08/08 03:43:06;;;;;;;;;;;13.50;99.90;;;;;;4918927;29;20279;-77
2023/08/08 03:45:32;;;;;;;;;;;13.50;99.90;;;;;;4918673;29;19929;-77
2023/08/08 03:47:58;;;;;;;;;;;13.50;99.90;;;;;;4934194;29;20386;-77
2023/08/08 03:50:23;;;;;;;;;;;13.40;99.90;;;;;;4918637;29;19930;-77
2023/08/08 03:52:49;;;;;;;;;;;13.40;99.90;;;;;;4918135;29;20350;-77
2023/08/08 03:55:14;;;;;;;;;;;13.30;99.90;;;;;;4918543;29;19930;-77
2023/08/08 03:57:40;;;;;;;;;;;13.30;99.90;;;;;;4918368;29;20043;-77
2023/08/08 04:00:08;;;;;;;;;;;13.20;99.90;;;;;;4916789;29;20362;-77
2023/08/08 04:02:33;;;;;;;;;;;13.20;99.90;;;;;;4917196;29;20025;-77
2023/08/08 04:04:59;;;;;;;;;;;13.20;99.90;;;;;;4915225;29;20437;-77
2023/08/08 04:07:24;;;;;;;;;;;13.10;99.90;;;;;;4915080;29;19919;-78
2023/08/08 04:09:50;;;;;;;;;;;13.20;99.90;;;;;;4916566;29;19938;-77
2023/08/08 04:12:16;;;;;;;;;;;13.20;99.90;;;;;;4900868;29;20004;-77
2023/08/08 04:14:41;;;;;;;;;;;13.20;99.90;;;;;;4900666;29;20374;-77
2023/08/08 04:17:07;;;;;;;;;;;13.20;99.90;;;;;;4918338;29;20057;-77
2023/08/08 04:19:32;;;;;;;;;;;13.20;99.90;;;;;;4918101;29;20109;-77
2023/08/08 04:21:58;;;;;;;;;;;13.20;99.90;;;;;;4909182;29;19930;-76
2023/08/08 04:24:24;;;;;;;;;;;13.20;99.90;;;;;;4912501;29;19926;-76
2023/08/08 04:26:50;;;;;;;;;;;13.20;99.90;;;;;;4905188;29;19923;-76
2023/08/08 04:29:15;;;;;;;;;;;13.20;99.90;;;;;;4917449;29;19933;-76
2023/08/08 04:31:41;;;;;;;;;;;13.20;99.90;;;;;;4915405;29;19926;-77
2023/08/08 04:34:06;;;;;;;;;;;13.20;99.90;;;;;;4914573;29;19922;-76
2023/08/08 04:36:33;;;;;;;;;;;13.20;99.90;;;;;;4914962;29;19991;-77
2023/08/08 04:38:58;;;;;;;;;;;13.20;99.90;;;;;;4913469;29;19929;-77
2023/08/08 04:41:24;;;;;;;;;;;13.20;99.90;;;;;;4915216;29;19918;-77
2023/08/08 04:43:49;;;;;;;;;;;13.30;99.90;;;;;;4916573;29;19929;-77
2023/08/08 04:46:15;;;;;;;;;;;13.30;99.90;;;;;;4917633;29;19970;-77
2023/08/08 04:48:40;;;;;;;;;;;13.30;99.90;;;;;;4917338;29;19923;-77
2023/08/08 04:51:06;;;;;;;;;;;13.40;99.90;;;;;;4913962;29;20009;-77
2023/08/08 04:53:32;;;;;;;;;;;13.40;99.90;;;;;;4915046;29;19926;-77
2023/08/08 04:55:58;;;;;;;;;;;13.50;99.90;;;;;;4899953;29;20001;-76
2023/08/08 04:58:23;;;;;;;;;;;13.50;99.90;;;;;;4917295;29;19922;-77
2023/08/08 05:00:50;;;;;;;;;;;13.50;99.90;;;;;;4915759;29;19922;-77
2023/08/08 05:03:16;;;;;;;;;;;13.60;99.90;;;;;;4915297;29;20271;-76
2023/08/08 05:05:44;;;;;;;;;;;13.60;99.90;;;;;;4917185;29;19919;-76
2023/08/08 05:08:10;;;;;;;;;;;13.70;99.90;;;;;;4916866;29;19989;-76
2023/08/08 05:10:36;;;;;;;;;;;13.70;99.90;;;;;;4917026;29;20420;-76
2023/08/08 05:13:01;;;;;;;;;;;13.80;99.90;;;;;;4914680;29;19919;-76
2023/08/08 05:15:27;;;;;;;;;;;13.80;99.90;;;;;;4927511;29;20295;-76
2023/08/08 05:17:54;;;;;;;;;;;13.80;99.90;;;;;;4909341;29;20276;-76
2023/08/08 05:20:21;;;;;;;;;;;13.90;99.90;;;;;;4917216;29;19929;-76
2023/08/08 05:22:46;;;;;;;;;;;13.90;99.90;;;;;;4916702;29;20006;-76
2023/08/08 05:25:12;;;;;;;;;;;13.90;99.90;;;;;;4916909;29;20038;-76
2023/08/08 05:27:37;;;;;;;;;;;13.90;99.90;;;;;;4917325;29;19922;-76
2023/08/08 05:30:04;;;;;;;;;;;13.90;99.90;;;;;;4916685;29;20379;-76
2023/08/08 05:32:30;;;;;;;;;;;14.00;99.90;;;;;;4905217;29;19925;-76
2023/08/08 05:34:57;;;;;;;;;;;13.90;99.90;;;;;;4916312;29;20001;-76
2023/08/08 05:37:23;;;;;;;;;;;14.00;99.90;;;;;;4916586;29;19926;-76
2023/08/08 05:39:49;;;;;;;;;;;14.00;99.90;;;;;;4907543;29;19919;-77
2023/08/08 05:42:14;;;;;;;;;;;14.00;99.90;;;;;;4899722;29;20302;-77
2023/08/08 05:44:41;;;;;;;;;;;14.00;99.90;;;;;;4916394;29;19948;-77
2023/08/08 05:47:07;;;;;;;;;;;14.10;99.90;;;;;;4898328;29;19919;-76
2023/08/08 05:49:33;;;;;;;;;;;14.20;99.90;;;;;;4916632;29;20479;-76
2023/08/08 05:51:59;;;;;;;;;;;14.20;99.90;;;;;;4916779;29;20267;-76
2023/08/08 05:54:24;;;;;;;;;;;14.30;99.90;;;;;;4915834;29;19929;-76
2023/08/08 05:56:50;;;;;;;;;;;14.30;99.90;;;;;;4916244;29;19927;-76
2023/08/08 05:59:15;;;;;;;;;;;14.30;99.90;;;;;;4915409;29;19918;-76
2023/08/08 06:01:41;;;;;;;;;;;14.30;99.90;;;;;;4916905;29;19974;-76
2023/08/08 06:04:06;;;;;;;;;;;14.50;99.90;;;;;;4916506;29;19927;-77
2023/08/08 06:06:32;;;;;;;;;;;14.60;99.90;;;;;;4916261;29;20365;-77
2023/08/08 06:08:58;;;;;;;;;;;14.60;99.90;;;;;;4916692;29;20017;-77
2023/08/08 06:11:23;;;;;;;;;;;14.60;99.90;;;;;;4900869;29;19925;-76
2023/08/08 06:13:49;;;;;;;;;;;14.70;99.90;;;;;;4916572;29;19926;-76
2023/08/08 06:16:15;;;;;;;;;;;14.70;99.90;;;;;;4914831;29;20002;-76
2023/08/08 06:18:41;;;;;;;;;;;14.80;99.90;;;;;;4899334;29;19923;-76
2023/08/08 06:21:07;;;;;;;;;;;14.90;99.90;;;;;;4900298;29;20230;-77
2023/08/08 06:23:32;;;;;;;;;;;15.00;99.90;;;;;;4916126;29;20049;-77
2023/08/08 06:25:58;;;;;;;;;;;15.10;99.90;;;;;;4932362;29;19922;-77
2023/08/08 06:28:23;;;;;;;;;;;15.20;99.90;;;;;;4915934;29;19958;-77
2023/08/08 06:30:49;;;;;;;;;;;15.20;99.90;;;;;;4903186;29;19933;-77
2023/08/08 06:33:14;;;;;;;;;;;15.40;99.90;;;;;;4900620;29;20021;-77
2023/08/08 06:35:40;;;;;;;;;;;15.40;1.00;;;;;;4915805;29;20326;-76
2023/08/08 06:38:06;;;;;;;;;;;15.40;1.00;;;;;;4903891;29;19923;-77
2023/08/08 06:40:31;;;;;;;;;;;15.50;1.00;;;;;;4916407;29;20274;-76
2023/08/08 06:42:57;;;;;;;;;;;15.60;99.90;;;;;;4916105;29;20271;-76
2023/08/08 06:45:23;;;;;;;;;;;15.70;99.90;;;;;;4916809;29;19923;-76
2023/08/08 06:47:49;;;;;;;;;;;15.80;99.90;;;;;;4916072;29;20351;-76
2023/08/08 06:50:14;;;;;;;;;;;15.90;99.90;;;;;;4916031;29;19926;-76
2023/08/08 06:52:40;;;;;;;;;;;16.00;99.90;;;;;;4916463;29;19930;-77
2023/08/08 06:55:06;;;;;;;;;;;16.00;60.60;;;;;;4915781;29;20366;-77
2023/08/08 06:57:32;;;;;;;;;;;16.10;99.90;;;;;;4916480;29;19919;-76
2023/08/08 06:59:58;;;;;;;;;;;16.20;99.90;;;;;;4912219;29;19923;-77
2023/08/08 07:02:24;;;;;;;;;;;16.20;1.00;;;;;;4907221;29;19926;-76
2023/08/08 07:04:49;;;;;;;;;;;16.30;14.90;;;;;;4916189;29;19926;-77
2023/08/08 07:07:15;;;;;;;;;;;16.40;1.00;;;;;;4916009;29;19944;-77
2023/08/08 07:09:41;;;;;;;;;;;16.50;1.00;;;;;;4918071;29;19938;-76
2023/08/08 07:12:07;;;;;;;;;;;16.60;99.90;;;;;;4919381;29;20005;-75
2023/08/08 07:14:33;;;;;;;;;;;16.60;99.90;;;;;;4919726;29;20078;-77
2023/08/08 07:16:58;;;;;;;;;;;16.60;99.90;;;;;;4902103;29;20346;-77
2023/08/08 07:19:24;;;;;;;;;;;16.50;99.90;;;;;;4910005;29;20338;-77
2023/08/08 07:21:50;;;;;;;;;;;16.70;99.90;;;;;;4903646;29;19918;-77
2023/08/08 07:24:16;;;;;;;;;;;16.70;99.90;;;;;;4911331;29;20018;-76
2023/08/08 07:26:41;;;;;;;;;;;16.80;96.50;;;;;;4913520;29;19969;-77
2023/08/08 07:29:07;;;;;;;;;;;16.80;99.90;;;;;;4918933;29;19974;-76
2023/08/08 07:31:32;;;;;;;;;;;16.90;99.90;;;;;;4907833;29;19973;-77
2023/08/08 07:33:58;;;;;;;;;;;16.80;12.50;;;;;;4932370;29;20008;-77
2023/08/08 07:36:24;;;;;;;;;;;16.90;35.50;;;;;;4918500;29;19933;-77
2023/08/08 07:38:49;;;;;;;;;;;16.90;6.50;;;;;;4918685;29;19923;-77
2023/08/08 07:41:15;;;;;;;;;;;16.80;44.60;;;;;;4911095;29;20002;-76
2023/08/08 07:43:40;;;;;;;;;;;16.90;99.90;;;;;;4913238;29;20002;-77
2023/08/08 07:46:06;;;;;;;;;;;16.90;99.90;;;;;;4913122;29;19919;-76
2023/08/08 07:48:31;;;;;;;;;;;16.90;1.00;;;;;;4911015;29;19923;-76
2023/08/08 07:50:57;;;;;;;;;;;16.80;1.00;;;;;;4918347;29;19930;-77
2023/08/08 07:53:23;;;;;;;;;;;17.00;1.00;;;;;;4918820;29;19922;-76
2023/08/08 07:55:48;;;;;;;;;;;17.00;51.40;;;;;;4918791;29;20350;-77
2023/08/08 07:58:14;;;;;;;;;;;17.10;99.90;;;;;;4918835;29;19919;-77
2023/08/08 08:00:40;;;;;;;;;;;17.10;99.90;;;;;;4918602;29;19918;-77
2023/08/08 08:03:06;;;;;;;;;;;17.20;99.90;;;;;;4918630;29;19969;-77
2023/08/08 08:05:32;;;;;;;;;;;17.20;1.00;;;;;;4902497;29;19926;-77
2023/08/08 08:07:57;;;;;;;;;;;17.20;99.90;;;;;;4918400;29;19930;-77
2023/08/08 08:10:23;;;;;;;;;;;17.10;99.90;;;;;;4904803;29;19933;-78
2023/08/08 08:12:48;;;;;;;;;;;17.00;99.90;;;;;;4923474;29;19963;-77
2023/08/08 08:15:14;;;;;;;;;;;16.90;99.90;;;;;;4915824;29;19934;-76
2023/08/08 08:17:39;;;;;;;;;;;17.00;99.90;;;;;;4918418;29;19918;-77
2023/08/08 08:20:10;;;;;;;;;;;16.90;99.90;;;;;;4917851;29;19918;-76
2023/08/08 08:22:36;;;;;;;;;;;16.90;99.90;;;;;;4903014;29;19970;-76
2023/08/08 08:25:02;;;;;;;;;;;17.00;1.00;;;;;;4921854;29;20544;-76
2023/08/08 08:27:28;;;;;;;;;;;17.00;99.90;;;;;;4918532;29;19922;-76
2023/08/08 08:29:53;;;;;;;;;;;16.90;99.90;;;;;;4906127;29;19929;-76
2023/08/08 08:32:19;;;;;;;;;;;16.70;99.90;;;;;;4916464;29;19926;-76
2023/08/08 08:34:45;;;;;;;;;;;16.70;99.90;;;;;;4917599;29;19981;-77
2023/08/08 08:37:11;;;;;;;;;;;16.70;99.90;;;;;;4917710;29;20017;-77
2023/08/08 08:39:36;;;;;;;;;;;17.00;99.90;;;;;;4910125;29;20005;-76
2023/08/08 08:42:04;;;;;;;;;;;17.10;99.90;;;;;;4912395;29;19919;-77
2023/08/08 08:44:31;;;;;;;;;;;17.10;99.90;;;;;;4917912;29;20017;-77
2023/08/08 08:46:58;;;;;;;;;;;16.90;99.90;;;;;;4917703;29;19929;-76
2023/08/08 08:49:24;;;;;;;;;;;16.90;99.90;;;;;;4913072;29;19927;-76
2023/08/08 08:51:50;;;;;;;;;;;17.20;99.90;;;;;;4909341;29;20404;-77
2023/08/08 08:54:15;;;;;;;;;;;17.40;23.70;;;;;;4914670;29;19919;-76
2023/08/08 08:56:41;;;;;;;;;;;17.30;99.90;;;;;;4917239;29;20422;-76
2023/08/08 08:59:07;;;;;;;;;;;17.40;99.90;;;;;;4917298;29;19930;-76
2023/08/08 09:01:33;;;;;;;;;;;17.30;99.90;;;;;;4917506;29;19922;-77
2023/08/08 09:03:58;;;;;;;;;;;17.30;99.90;;;;;;4917704;29;19923;-76
2023/08/08 09:06:24;;;;;;;;;;;17.60;1.00;;;;;;4917438;29;19930;-76
2023/08/08 09:08:50;;;;;;;;;;;17.80;99.90;;;;;;4917304;29;19990;-77
2023/08/08 09:11:15;;;;;;;;;;;17.60;99.90;;;;;;4917231;29;19930;-76
2023/08/08 09:13:41;;;;;;;;;;;17.40;99.90;;;;;;4917055;29;19930;-77
2023/08/08 09:16:08;;;;;;;;;;;17.20;99.90;;;;;;4905664;29;20018;-77
2023/08/08 09:18:34;;;;;;;;;;;17.20;99.90;;;;;;4914769;29;20400;-78
2023/08/08 09:20:59;;;;;;;;;;;17.20;99.90;;;;;;4917039;29;19922;-77
2023/08/08 09:23:25;;;;;;;;;;;17.50;97.80;;;;;;4916856;29;19918;-77
2023/08/08 09:25:50;;;;;;;;;;;17.60;1.00;;;;;;4901573;29;19969;-77
2023/08/08 09:28:16;;;;;;;;;;;17.90;1.00;;;;;;4916965;29;19957;-77
2023/08/08 09:30:42;;;;;;;;;;;18.00;1.00;;;;;;4916349;29;19969;-77
2023/08/08 09:33:08;;;;;;;;;;;17.80;1.00;;;;;;4905989;29;19930;-77
2023/08/08 09:35:34;;;;;;;;;;;18.10;14.50;;;;;;4914250;29;19922;-77
2023/08/08 09:37:59;;;;;;;;;;;18.20;41.10;;;;;;4916627;29;20370;-76
2023/08/08 09:40:25;;;;;;;;;;;18.30;1.00;;;;;;4900800;29;19919;-76
2023/08/08 09:42:51;;;;;;;;;;;18.10;99.90;;;;;;4916719;29;19970;-77
2023/08/08 09:45:17;;;;;;;;;;;18.10;99.90;;;;;;4916548;29;19922;-76
2023/08/08 09:47:42;;;;;;;;;;;18.10;99.90;;;;;;4916246;29;19974;-76
2023/08/08 09:50:08;;;;;;;;;;;18.20;99.90;;;;;;4916374;29;20088;-78
2023/08/08 09:52:35;;;;;;;;;;;18.10;99.90;;;;;;4897802;29;20437;-76
2023/08/08 09:55:02;;;;;;;;;;;18.20;99.90;;;;;;4906362;29;19922;-76
2023/08/08 09:57:28;;;;;;;;;;;18.10;99.90;;;;;;4916875;29;19919;-76
2023/08/08 09:59:55;;;;;;;;;;;18.00;44.30;;;;;;4900663;29;19929;-76
2023/08/08 10:02:21;;;;;;;;;;;17.80;34.30;;;;;;4916521;29;19919;-76
2023/08/08 10:04:47;;;;;;;;;;;17.30;1.00;;;;;;4916255;29;19978;-77
2023/08/08 10:07:12;;;;;;;;;;;16.70;99.90;;;;;;4916653;29;19978;-76
2023/08/08 10:09:38;;;;;;;;;;;15.90;99.90;;;;;;4916147;29;19982;-77
2023/08/08 10:12:08;;;;;;;;;;;15.30;1.00;;;;;;4910901;29;19938;-76
2023/08/08 10:14:37;;;;;;;;;;;15.00;55.50;;;;;;4897371;29;20313;-76
2023/08/08 10:17:06;;;;;;;;;;;15.00;99.90;;;;;;4915418;29;20330;-76
2023/08/08 10:19:32;;;;;;;;;;;15.10;99.90;;;;;;4905540;29;20386;-76
2023/08/08 10:22:00;;;;;;;;;;;15.30;99.90;;;;;;4897397;29;19923;-76
2023/08/08 10:24:25;;;;;;;;;;;15.70;99.90;;;;;;4906330;29;19927;-76
2023/08/08 10:26:59;;;;;;;;;;;16.00;99.90;;;;;;4902866;29;19927;-76
2023/08/08 10:29:26;;;;;;;;;;;16.40;99.90;;;;;;4916198;29;19923;-76
2023/08/08 10:32:12;;;;;;;;;;;16.30;99.90;;;;;;4916261;29;19969;-76
2023/08/08 10:34:38;;;;;;;;;;;16.10;99.90;;;;;;4915272;29;20345;-76
2023/08/08 10:37:14;;;;;;;;;;;16.00;99.90;;;;;;4915784;29;19933;-75
2023/08/08 10:39:53;;;;;;;;;;;15.90;74.00;;;;;;4931810;29;20097;-75
2023/08/08 10:42:19;;;;;;;;;;;16.10;99.90;;;;;;4916606;29;19926;-76
2023/08/08 10:44:52;;;;;;;;;;;16.20;99.90;;;;;;4911415;29;19926;-77
2023/08/08 10:47:21;;;;;;;;;;;16.20;99.90;;;;;;4915853;29;19923;-76
2023/08/08 10:49:56;;;;;;;;;;;16.20;99.90;;;;;;4903693;29;19923;-76
2023/08/08 10:52:21;;;;;;;;;;;16.20;99.90;;;;;;4919871;29;19919;-76
2023/08/08 10:54:52;;;;;;;;;;;16.60;99.90;;;;;;4919733;29;20255;-76
2023/08/08 10:57:19;;;;;;;;;;;17.10;99.90;;;;;;4919635;29;19981;-76
2023/08/08 10:59:44;;;;;;;;;;;17.40;1.00;;;;;;4919678;29;20365;-76
2023/08/08 11:02:10;;;;;;;;;;;17.40;1.00;;;;;;4901462;29;19961;-76
2023/08/08 11:04:36;;;;;;;;;;;17.20;99.90;;;;;;4918947;29;19965;-76
2023/08/08 11:07:01;;;;;;;;;;;17.10;99.90;;;;;;4915606;29;19929;-76
2023/08/08 11:09:27;;;;;;;;;;;17.20;99.90;;;;;;4926318;29;20345;-76
2023/08/08 11:11:53;;;;;;;;;;;17.40;99.90;;;;;;4915573;29;20421;-76
2023/08/08 11:14:19;;;;;;;;;;;17.60;1.00;;;;;;4914740;29;19929;-76
2023/08/08 11:16:46;;;;;;;;;;;17.80;99.90;;;;;;4916133;29;19922;-76
2023/08/08 11:19:12;;;;;;;;;;;18.10;99.90;;;;;;4902937;29;19926;-76
2023/08/08 11:21:40;;;;;;;;;;;18.40;99.90;;;;;;4917071;29;19926;-76
2023/08/08 11:24:06;;;;;;;;;;;18.60;1.00;;;;;;4912471;29;19926;-76
2023/08/08 11:26:32;;;;;;;;;;;18.60;1.00;;;;;;4916095;29;20347;-76
2023/08/08 11:28:59;;;;;;;;;;;18.40;1.00;;;;;;4898456;29;19922;-76
2023/08/08 11:31:24;;;;;;;;;;;18.60;55.90;;;;;;4917395;29;20013;-76
2023/08/08 11:33:50;;;;;;;;;;;18.70;1.00;;;;;;4902793;29;20005;-77
2023/08/08 11:36:16;;;;;;;;;;;18.70;1.00;;;;;;4912857;29;19934;-76
2023/08/08 11:38:43;;;;;;;;;;;18.50;1.00;;;;;;4897883;29;19953;-77
2023/08/08 11:41:10;;;;;;;;;;;18.30;1.00;;;;;;4883146;29;19919;-77
2023/08/08 11:43:37;;;;;;;;;;;18.30;1.00;;;;;;4899574;29;19919;-77
2023/08/08 11:46:03;;;;;;;;;;;18.50;1.00;;;;;;4899658;29;19923;-76
2023/08/08 11:48:28;;;;;;;;;;;19.00;1.00;;;;;;4894069;29;19930;-76
2023/08/08 11:50:54;;;;;;;;;;;19.20;1.00;;;;;;4898056;29;19975;-76
2023/08/08 11:53:20;;;;;;;;;;;18.90;1.00;;;;;;4883314;29;19926;-77
2023/08/08 11:55:45;;;;;;;;;;;18.40;1.00;;;;;;4913074;29;19919;-77
2023/08/08 11:58:15;;;;;;;;;;;18.60;1.00;;;;;;4898416;29;19927;-78
2023/08/08 12:00:42;;;;;;;;;;;18.40;1.00;;;;;;4897242;29;19919;-77
2023/08/08 12:03:09;;;;;;;;;;;18.60;99.90;;;;;;4897946;29;19926;-77
2023/08/08 12:05:40;;;;;;;;;;;18.70;99.90;;;;;;4882227;29;19954;-76
2023/08/08 12:08:06;;;;;;;;;;;18.60;99.90;;;;;;4896508;29;20014;-78
2023/08/08 12:10:32;;;;;;;;;;;18.50;99.90;;;;;;4898948;29;19931;-76
2023/08/08 12:12:59;;;;;;;;;;;18.40;99.90;;;;;;4897615;29;19919;-76
2023/08/08 12:15:32;;;;;;;;;;;18.30;1.00;;;;;;4911833;29;20984;-76
2023/08/08 12:17:58;;;;;;;;;;;18.20;1.00;;;;;;4913596;29;19927;-76
2023/08/08 12:20:26;;;;;;;;;;;18.10;94.30;;;;;;4882719;29;19923;-77
2023/08/08 12:22:52;;;;;;;;;;;17.80;99.90;;;;;;4899047;29;19926;-76
2023/08/08 12:25:17;;;;;;;;;;;17.70;99.90;;;;;;4897237;29;19923;-76
2023/08/08 12:27:43;;;;;;;;;;;17.80;99.90;;;;;;4897627;29;19930;-77
2023/08/08 12:30:09;;;;;;;;;;;18.20;1.00;;;;;;4897832;29;20393;-76
2023/08/08 12:32:34;;;;;;;;;;;18.50;99.90;;;;;;4898377;29;19919;-77
2023/08/08 12:35:00;;;;;;;;;;;18.90;26.60;;;;;;4883276;29;19934;-77
2023/08/08 12:37:25;;;;;;;;;;;18.70;1.00;;;;;;4879982;29;20034;-76
2023/08/08 12:39:51;;;;;;;;;;;18.50;26.40;;;;;;4914651;29;20089;-76
2023/08/08 12:42:17;;;;;;;;;;;18.10;92.00;;;;;;4896145;29;19927;-76
2023/08/08 12:44:43;;;;;;;;;;;17.80;99.90;;;;;;4897238;29;19923;-75
2023/08/08 12:47:08;;;;;;;;;;;17.80;99.90;;;;;;4897717;29;19922;-76
2023/08/08 12:49:34;;;;;;;;;;;17.70;99.90;;;;;;4898223;29;19927;-75
2023/08/08 12:51:59;;;;;;;;;;;17.90;99.90;;;;;;4881482;29;20338;-75
2023/08/08 12:54:25;;;;;;;;;;;17.80;99.90;;;;;;4898420;29;19919;-75
2023/08/08 12:56:51;;;;;;;;;;;18.20;95.60;;;;;;4897460;29;19930;-76
2023/08/08 12:59:17;;;;;;;;;;;18.30;42.10;;;;;;4881890;29;19922;-75
2023/08/08 13:01:42;;;;;;;;;;;18.10;1.00;;;;;;4880882;29;19923;-76
2023/08/08 13:04:08;;;;;;;;;;;18.00;1.00;;;;;;4880894;29;19942;-76
2023/08/08 13:06:34;;;;;;;;;;;17.80;86.30;;;;;;4881369;29;19937;-75
2023/08/08 13:08:59;;;;;;;;;;;17.90;93.50;;;;;;4880709;29;19934;-76
2023/08/08 13:11:26;;;;;;;;;;;18.20;99.90;;;;;;4895043;29;19962;-75
2023/08/08 13:13:51;;;;;;;;;;;18.60;99.90;;;;;;4898531;29;19989;-75
2023/08/08 13:16:17;;;;;;;;;;;18.50;1.00;;;;;;4895541;29;20398;-76
2023/08/08 13:18:42;;;;;;;;;;;18.20;9.70;;;;;;4898603;29;19949;-76
2023/08/08 13:21:10;;;;;;;;;;;18.30;99.90;;;;;;4897849;29;20002;-76
2023/08/08 13:23:36;;;;;;;;;;;18.60;1.00;;;;;;4882194;29;19930;-76
2023/08/08 13:26:03;;;;;;;;;;;18.80;1.00;;;;;;4894694;29;19927;-76
2023/08/08 13:28:29;;;;;;;;;;;18.70;1.00;;;;;;4896396;29;20366;-77
2023/08/08 13:30:54;;;;;;;;;;;18.80;1.00;;;;;;4880144;29;19923;-76
2023/08/08 13:33:20;;;;;;;;;;;18.60;9.60;;;;;;4897184;29;19978;-76
2023/08/08 13:35:46;;;;;;;;;;;18.50;1.00;;;;;;4898238;29;19923;-77
2023/08/08 13:38:14;;;;;;;;;;;18.40;1.00;;;;;;4899878;29;19926;-76
2023/08/08 13:40:43;;;;;;;;;;;18.60;1.00;;;;;;4916531;29;20470;-76
2023/08/08 13:43:08;;;;;;;;;;;18.90;1.00;;;;;;4912002;29;19919;-76
2023/08/08 13:45:34;;;;;;;;;;;18.80;99.90;;;;;;4914476;29;19978;-76
2023/08/08 13:48:00;;;;;;;;;;;19.00;99.90;;;;;;4918205;29;20033;-76
2023/08/08 13:50:25;;;;;;;;;;;19.00;99.90;;;;;;4915302;29;20010;-76
2023/08/08 13:52:53;;;;;;;;;;;18.80;99.90;;;;;;4916314;29;19934;-76
2023/08/08 13:55:18;;;;;;;;;;;18.50;99.90;;;;;;4915017;29;20444;-76
2023/08/08 13:57:44;;;;;;;;;;;18.30;99.90;;;;;;4913531;29;19982;-76
2023/08/08 14:00:12;;;;;;;;;;;18.20;1.00;;;;;;4912095;29;19946;-76
2023/08/08 14:02:41;;;;;;;;;;;18.30;21.00;;;;;;4911510;29;19923;-76
2023/08/08 14:05:06;;;;;;;;;;;18.70;90.00;;;;;;4899889;29;19918;-76
2023/08/08 14:07:33;;;;;;;;;;;18.80;1.00;;;;;;4913709;29;19926;-76
2023/08/08 14:09:59;;;;;;;;;;;19.10;1.00;;;;;;4912639;29;19938;-76
2023/08/08 14:12:25;;;;;;;;;;;18.60;1.00;;;;;;4909771;29;20288;-76
2023/08/08 14:14:50;;;;;;;;;;;18.40;99.90;;;;;;4894778;29;19923;-76
2023/08/08 14:17:16;;;;;;;;;;;18.30;1.00;;;;;;4914318;29;19927;-77
2023/08/08 14:19:41;;;;;;;;;;;18.50;1.00;;;;;;4906438;29;20339;-76
2023/08/08 14:22:07;;;;;;;;;;;18.30;99.90;;;;;;4919367;29;19919;-76
2023/08/08 14:24:32;;;;;;;;;;;18.10;99.90;;;;;;4914916;29;19963;-76
2023/08/08 14:26:58;;;;;;;;;;;17.90;1.00;;;;;;4916102;29;19933;-76
2023/08/08 14:29:23;;;;;;;;;;;17.90;1.00;;;;;;4911849;29;20052;-76
2023/08/08 14:31:49;;;;;;;;;;;18.00;1.00;;;;;;4918255;29;20041;-76
2023/08/08 14:34:15;;;;;;;;;;;18.00;1.00;;;;;;4918604;29;19925;-76
2023/08/08 14:36:41;;;;;;;;;;;17.90;1.00;;;;;;4918473;29;19927;-76
2023/08/08 14:39:07;;;;;;;;;;;17.60;99.90;;;;;;4918443;29;19948;-77
2023/08/08 14:41:33;;;;;;;;;;;17.90;99.90;;;;;;4917672;29;19941;-77
2023/08/08 14:43:58;;;;;;;;;;;17.80;99.90;;;;;;4902449;29;20343;-77
2023/08/08 14:46:24;;;;;;;;;;;17.90;99.90;;;;;;4917797;29;19923;-78
2023/08/08 14:48:49;;;;;;;;;;;18.10;99.90;;;;;;4919018;29;19954;-77